Wheelerville, Pennsylvania
Current Conditions -  °F | °C
As of 5:54 PM on Tuesday 27 Jan 2015 (Local Time) from KIPT Reporting Station
Clear Clear  
Wind Chill:   Ceiling: Unl
Heat Index: 20°   Visibility: 10mi
Dew Point:   Wind: 16mph
Humidity: 50%   Direction: 310°NW
Pressure: 29.9"   Gusts: NA
Location:  41.5331°N, 76.7454°W
Report Text: KIPT 272254Z 31014KT 10SM CLR M07/M16 A2990 RMK AO2 SLP134 T10671156
Loading
Personal Weather Stations






























Interactive Weather Map New forecast layout! Learn more

10-Day Weather Forecast

Advertisements
Track Severe Weather on mobile